Terminal Aerodrome Forecast
Issued by NWS

Home | Current Version | Previous Version | Text Only | Print | Product List | Glossary On
Versions: 1 2 3 4 5 6 7 8 9 10 11 12 13 14 15 16 17 18 19 20 21 22 23 24 25 26 27 28 29 30
747
FTUS42 KFFC 221903 AAA
TAFPDK
TAF AMD
KPDK 221903Z 2219/2318 10008KT 5SM BR OVC004
     FM222000 16010KT 6SM BR VCSH BKN007 OVC020
      TEMPO 2220/2222 VRB15G25KT 3SM TSRA OVC012CB
     FM222200 22010G20KT 4SM TSRA OVC015CB
     FM230000 25012KT P6SM BKN015
     FM230400 26012KT 5SM -RA BR BKN009
     FM231000 30013G23KT P6SM BKN009
     FM231300 31015G25KT P6SM SCT015 BKN030
     FM231500 31017G27KT P6SM SCT050=

USA.gov is the U.S. government's official web portal to all federal, state and local government web resources and services.